Time;durP1;ratioP1;P1;durP2;ratioP2;P2;SDS_P1;SDS_P2;PMS_P1;PMS_P2;Temp;Humidity;BMP_temperature;BMP_pressure;BME280_temperature;BME280_humidity;BME280_pressure;Samples;Min_cycle;Max_cycle;Signal;HPM_P1;HPM_P2
2023/06/23 00:03:19;;;;;;;0.35;0.35;;;;;;;22.16;100.00;101626.81;10362827;28;20042;-86
2023/06/23 00:08:20;;;;;;;0.45;0.35;;;;;;;22.59;100.00;101632.50;10382157;28;20045;-87
2023/06/23 00:13:22;;;;;;;1.33;0.52;;;;;;;22.65;100.00;101637.66;10357809;28;20038;-88
2023/06/23 00:18:24;;;;;;;0.32;0.30;;;;;;;22.60;100.00;101644.75;10354034;28;20045;-88
2023/06/23 00:23:25;;;;;;;0.43;0.40;;;;;;;22.86;100.00;101647.00;10371997;28;20046;-87
2023/06/23 00:28:27;;;;;;;0.60;0.40;;;;;;;23.10;100.00;101651.06;10371719;28;20046;-86
2023/06/23 00:33:29;;;;;;;0.30;0.30;;;;;;;23.11;100.00;101657.16;10372165;28;20042;-85
2023/06/23 00:38:30;;;;;;;0.10;0.10;;;;;;;23.07;100.00;101663.38;10361351;28;20072;-86
2023/06/23 00:43:32;;;;;;;0.35;0.20;;;;;;;23.16;100.00;101673.72;10369692;28;20037;-85
2023/06/23 00:48:34;;;;;;;0.40;0.40;;;;;;;23.29;100.00;101679.72;10376328;28;20138;-84
2023/06/23 00:53:35;;;;;;;0.30;0.25;;;;;;;23.27;100.00;101686.78;10353737;28;20045;-87
2023/06/23 00:58:37;;;;;;;0.15;0.10;;;;;;;23.58;100.00;101691.53;10368654;28;20046;-86
2023/06/23 01:03:40;;;;;;;0.10;0.10;;;;;;;23.68;100.00;101719.44;10371698;28;20517;-86
2023/06/23 01:08:59;;;;;;;0.47;0.25;;;;;;;23.94;100.00;101727.81;10365521;28;20077;-86
2023/06/23 01:14:06;;;;;;;0.20;0.20;;;;;;;23.50;100.00;101723.22;10365232;28;20030;-85
2023/06/23 01:19:32;;;;;;;0.32;0.30;;;;;;;23.83;100.00;101730.59;10345764;28;20046;-86
2023/06/23 01:24:40;;;;;;;3.55;0.57;;;;;;;23.79;100.00;101734.19;10373354;28;20041;-87
2023/06/23 01:29:44;;;;;;;0.75;0.32;;;;;;;23.70;100.00;101743.09;10375759;28;20073;-85
2023/06/23 01:34:50;;;;;;;0.20;0.20;;;;;;;23.89;100.00;101756.81;10368220;28;20496;-86
2023/06/23 01:40:06;;;;;;;1.48;0.85;;;;;;;23.88;100.00;101760.34;10369707;28;20127;-86
2023/06/23 01:45:09;;;;;;;0.43;0.20;;;;;;;24.12;100.00;101771.38;10370421;28;20046;-86
2023/06/23 01:50:13;;;;;;;0.17;0.17;;;;;;;24.03;100.00;101768.00;10362104;28;20118;-86
2023/06/23 01:55:17;;;;;;;0.30;0.30;;;;;;;24.26;100.00;101785.19;10365438;28;20513;-87
2023/06/23 02:00:21;;;;;;;0.13;0.13;;;;;;;24.27;100.00;101786.06;10363772;28;20053;-86
2023/06/23 02:05:27;;;;;;;0.10;0.10;;;;;;;23.84;100.00;101785.81;10363657;28;20045;-85
2023/06/23 02:10:30;;;;;;;0.45;0.10;;;;;;;25.28;100.00;101792.91;10369684;28;20046;-87
2023/06/23 02:15:32;;;;;;;0.10;0.10;;;;;;;24.37;100.00;101801.69;10374003;28;20049;-86
2023/06/23 02:20:37;;;;;;;0.30;0.25;;;;;;;24.24;100.00;101797.50;10376295;28;20049;-85
2023/06/23 02:25:41;;;;;;;0.38;0.30;;;;;;;23.79;100.00;101803.47;10367289;28;20050;-86
2023/06/23 02:30:44;;;;;;;0.57;0.30;;;;;;;23.89;100.00;101817.34;10359307;28;20045;-86
2023/06/23 02:35:46;;;;;;;0.20;0.20;;;;;;;23.58;100.00;101828.31;10370133;28;20049;-85
2023/06/23 02:40:50;;;;;;;0.28;0.28;;;;;;;23.15;100.00;101837.59;10378223;28;20049;-83
2023/06/23 02:45:55;;;;;;;0.10;0.10;;;;;;;23.71;100.00;101843.06;10390385;28;20057;-83
2023/06/23 02:50:58;;;;;;;0.60;0.35;;;;;;;23.16;100.00;101848.97;10357699;28;20531;-85
2023/06/23 02:56:05;;;;;;;0.22;0.20;;;;;;;24.63;100.00;101853.00;10363798;28;20042;-83
2023/06/23 03:01:09;;;;;;;0.30;0.30;;;;;;;23.36;100.00;101868.03;10368003;28;20061;-84
2023/06/23 03:06:18;;;;;;;0.55;0.55;;;;;;;23.21;100.00;101878.72;10369038;28;20057;-84
2023/06/23 03:11:20;;;;;;;0.20;0.20;;;;;;;23.34;100.00;101884.72;10370326;28;20038;-84
2023/06/23 03:16:29;;;;;;;0.43;0.32;;;;;;;23.75;100.00;101886.81;10363644;28;20049;-84
2023/06/23 03:21:32;;;;;;;1.10;0.75;;;;;;;23.51;100.00;101892.41;10351885;28;20046;-84
2023/06/23 03:26:38;;;;;;;0.50;0.50;;;;;;;23.93;100.00;101900.66;10348348;28;20058;-82
2023/06/23 03:31:44;;;;;;;0.70;0.57;;;;;;;24.51;100.00;101908.56;10348267;28;20037;-86
2023/06/23 03:36:48;;;;;;;0.47;0.40;;;;;;;25.49;100.00;101921.72;10357931;28;20489;-84
2023/06/23 03:41:50;;;;;;;0.85;0.70;;;;;;;25.09;100.00;101925.13;10359932;28;20823;-81
2023/06/23 03:47:15;;;;;;;1.75;0.60;;;;;;;25.27;100.00;101936.22;10388732;28;20048;-82
2023/06/23 03:52:18;;;;;;;0.93;0.75;;;;;;;25.21;100.00;101942.47;10344544;28;20089;-82
2023/06/23 03:57:23;;;;;;;0.40;0.40;;;;;;;25.68;100.00;101947.75;10353531;28;20050;-83
2023/06/23 04:02:29;;;;;;;1.63;1.25;;;;;;;25.50;100.00;101949.00;10361515;28;20046;-83
2023/06/23 04:07:33;;;;;;;3.17;1.20;;;;;;;25.80;100.00;101973.00;10368619;28;20049;-83
2023/06/23 04:12:35;;;;;;;0.30;0.20;;;;;;;25.71;100.00;101973.19;10359250;28;20092;-83
2023/06/23 04:17:41;;;;;;;0.60;0.60;;;;;;;26.03;100.00;101979.53;10369921;28;20049;-82
2023/06/23 04:22:44;;;;;;;0.20;0.20;;;;;;;25.59;100.00;101990.16;10359431;28;20092;-82
2023/06/23 04:27:50;;;;;;;1.13;0.40;;;;;;;26.47;100.00;101996.22;10372984;28;20045;-84
2023/06/23 04:32:52;;;;;;;0.10;0.03;;;;;;;26.03;100.00;101995.38;10365516;28;20440;-82
2023/06/23 04:38:01;;;;;;;0.47;0.43;;;;;;;26.39;100.00;102004.28;10360786;28;20045;-83
2023/06/23 04:43:12;;;;;;;0.63;0.50;;;;;;;26.26;100.00;102008.13;10359442;28;20045;-83
2023/06/23 04:48:18;;;;;;;0.45;0.35;;;;;;;26.18;100.00;102016.22;10363407;28;20053;-82
2023/06/23 04:53:25;;;;;;;0.20;0.20;;;;;;;27.13;100.00;102024.56;10364028;28;20041;-82
2023/06/23 04:58:32;;;;;;;3.33;0.85;;;;;;;26.54;100.00;102039.19;10367224;28;20132;-83
2023/06/23 05:03:35;;;;;;;0.90;0.80;;;;;;;26.19;100.00;102044.38;10350051;28;20042;-83
2023/06/23 05:08:38;;;;;;;0.38;0.38;;;;;;;26.81;100.00;102060.63;10364547;28;20069;-84
2023/06/23 05:13:42;;;;;;;1.20;0.47;;;;;;;26.09;100.00;102063.97;10350238;28;20045;-82
2023/06/23 05:18:46;;;;;;;1.30;0.82;;;;;;;25.76;100.00;102067.22;10354142;28;20063;-81
2023/06/23 05:23:51;;;;;;;1.60;1.00;;;;;;;26.51;100.00;102069.22;10354983;28;20049;-84
2023/06/23 05:28:56;;;;;;;0.82;0.63;;;;;;;26.81;100.00;102077.34;10378977;28;20108;-83
2023/06/23 05:33:59;;;;;;;0.93;0.63;;;;;;;26.88;100.00;102078.09;10394140;28;20046;-82
2023/06/23 05:39:04;;;;;;;0.57;0.40;;;;;;;26.77;100.00;102094.19;10366500;28;20497;-83
2023/06/23 05:44:06;;;;;;;2.42;1.17;;;;;;;27.42;100.00;102087.34;10359595;28;20084;-85
2023/06/23 05:49:15;;;;;;;1.42;0.52;;;;;;;27.53;100.00;102098.50;10358928;28;20049;-84
2023/06/23 05:54:20;;;;;;;0.60;0.52;;;;;;;27.32;100.00;102093.75;10363382;28;20128;-82
2023/06/23 05:59:28;;;;;;;2.05;0.98;;;;;;;27.31;100.00;102090.25;10366759;28;20100;-84
2023/06/23 06:04:32;;;;;;;1.27;0.60;;;;;;;27.60;100.00;102098.31;10361060;28;20042;-83
2023/06/23 06:09:36;;;;;;;0.35;0.35;;;;;;;27.51;100.00;102096.81;10360146;28;20584;-82
2023/06/23 06:14:39;;;;;;;0.85;0.75;;;;;;;26.30;100.00;102110.16;10359690;28;20046;-81
2023/06/23 06:19:44;;;;;;;0.98;0.65;;;;;;;26.57;100.00;102118.41;10363628;28;20690;-83
2023/06/23 06:24:47;;;;;;;0.40;0.40;;;;;;;26.95;100.00;102123.75;10355771;28;20509;-81
2023/06/23 06:29:50;;;;;;;0.93;0.63;;;;;;;26.85;100.00;102145.09;10368347;28;20048;-81
2023/06/23 06:34:54;;;;;;;0.63;0.63;;;;;;;26.73;100.00;102142.72;10349860;28;20075;-81
2023/06/23 06:39:56;;;;;;;0.82;0.65;;;;;;;27.15;100.00;102147.06;10359569;28;20513;-82
2023/06/23 06:44:58;;;;;;;1.05;0.80;;;;;;;26.46;100.00;102153.00;10365075;28;20394;-81
2023/06/23 06:50:02;;;;;;;1.35;1.05;;;;;;;26.90;100.00;102156.47;10357145;28;20529;-81
2023/06/23 06:55:04;;;;;;;0.85;0.63;;;;;;;27.81;100.00;102168.38;10349440;28;20041;-81
2023/06/23 07:00:06;;;;;;;2.08;0.80;;;;;;;27.40;100.00;102185.25;10367064;28;20136;-82
2023/06/23 07:05:08;;;;;;;1.00;0.85;;;;;;;27.42;100.00;102182.59;10366813;28;20045;-82
2023/06/23 07:10:10;;;;;;;1.20;0.85;;;;;;;28.09;100.00;102178.25;10361799;28;20141;-82
2023/06/23 07:15:12;;;;;;;0.40;0.40;;;;;;;27.90;100.00;102188.44;10355859;28;20046;-83
2023/06/23 07:20:13;;;;;;;0.20;0.20;;;;;;;30.66;100.00;102178.69;10355412;28;20054;-82
2023/06/23 07:25:15;;;;;;;1.23;0.98;;;;;;;30.14;100.00;102189.50;10369244;28;20046;-80
2023/06/23 07:30:17;;;;;;;1.95;0.50;;;;;;;30.20;100.00;102183.94;10349892;28;20085;-80
2023/06/23 07:35:18;;;;;;;0.40;0.40;;;;;;;30.33;100.00;102173.75;10360386;28;20050;-80
2023/06/23 07:40:20;;;;;;;0.50;0.50;;;;;;;29.41;100.00;102191.97;10365890;28;20046;-80
2023/06/23 07:45:21;;;;;;;0.40;0.38;;;;;;;29.19;100.00;102189.13;10377559;28;20042;-80
2023/06/23 07:50:23;;;;;;;0.20;0.20;;;;;;;29.81;100.00;102186.22;10367378;28;20122;-80
2023/06/23 07:55:25;;;;;;;1.02;0.22;;;;;;;30.03;100.00;102197.88;10373403;28;20045;-80
2023/06/23 08:00:27;;;;;;;0.68;0.68;;;;;;;31.50;100.00;102196.66;10373144;28;20050;-82
2023/06/23 08:05:29;;;;;;;0.40;0.28;;;;;;;30.39;100.00;102194.78;10368079;28;20059;-81
2023/06/23 08:10:31;;;;;;;1.08;0.80;;;;;;;30.60;100.00;102200.22;10368778;28;20072;-80
2023/06/23 08:15:32;;;;;;;1.75;0.47;;;;;;;30.64;100.00;102187.66;10378832;28;20104;-81
2023/06/23 08:20:34;;;;;;;0.05;0.05;;;;;;;30.85;100.00;102192.16;10385525;28;20535;-82
2023/06/23 08:25:36;;;;;;;1.35;0.60;;;;;;;30.11;100.00;102210.00;10374776;28;20073;-79
2023/06/23 08:30:37;;;;;;;0.77;0.50;;;;;;;30.84;100.00;102205.53;10374040;28;20100;-80
2023/06/23 08:35:39;;;;;;;0.35;0.35;;;;;;;31.00;100.00;102214.63;10370874;28;20656;-80
2023/06/23 08:40:41;;;;;;;0.35;0.30;;;;;;;31.52;100.00;102232.09;10366905;28;20052;-79
2023/06/23 08:45:50;;;;;;;0.47;0.45;;;;;;;31.72;100.00;102235.72;10362950;28;20038;-79
2023/06/23 08:50:53;;;;;;;;;;;;;;;32.21;100.00;102233.59;10369161;28;20416;-80
2023/06/23 08:55:55;;;;;;;0.63;0.35;;;;;;;32.89;100.00;102234.97;10373747;28;19922;-80
2023/06/23 09:00:57;;;;;;;0.65;0.47;;;;;;;31.98;100.00;102252.41;10366779;28;20092;-80
2023/06/23 09:06:00;;;;;;;0.08;0.08;;;;;;;32.43;100.00;102253.97;10376297;28;20038;-81
2023/06/23 09:11:02;;;;;;;0.43;0.30;;;;;;;30.94;100.00;102260.09;10373405;28;20092;-79
2023/06/23 09:16:04;;;;;;;0.80;0.40;;;;;;;33.06;100.00;102247.50;10366680;28;20129;-79
2023/06/23 09:21:07;;;;;;;0.17;0.13;;;;;;;32.74;100.00;102257.88;10369222;28;20511;-78
2023/06/23 09:26:18;;;;;;;0.08;0.08;;;;;;;31.55;100.00;102269.22;10361750;28;20091;-79
2023/06/23 09:31:19;;;;;;;0.10;0.10;;;;;;;33.57;100.00;102262.84;10362287;28;20104;-79
2023/06/23 09:36:22;;;;;;;0.20;0.20;;;;;;;31.86;100.00;102278.63;10362862;28;20038;-80
2023/06/23 09:41:25;;;;;;;0.20;0.20;;;;;;;32.55;100.00;102274.75;10356756;28;20054;-85
2023/06/23 09:46:37;;;;;;;0.80;0.28;;;;;;;32.90;100.00;102276.75;10360218;28;20582;-79
2023/06/23 09:51:45;;;;;;;0.40;0.30;;;;;;;33.40;100.00;102280.59;10361207;28;20428;-82
2023/06/23 09:56:47;;;;;;;0.25;0.20;;;;;;;34.37;94.03;102276.63;10363128;28;20041;-81
2023/06/23 10:01:48;;;;;;;0.30;0.25;;;;;;;32.66;98.79;102286.72;10352978;28;20046;-81
2023/06/23 10:06:50;;;;;;;0.50;0.20;;;;;;;34.05;100.00;102285.38;10345614;28;20092;-81
2023/06/23 10:11:55;;;;;;;0.20;0.20;;;;;;;33.95;100.00;102289.47;10364551;28;20121;-81
2023/06/23 10:16:57;;;;;;;0.10;0.10;;;;;;;34.75;100.00;102289.72;10365293;28;20064;-80
2023/06/23 10:21:59;;;;;;;0.20;0.20;;;;;;;33.64;100.00;102297.22;10353111;28;20046;-80
2023/06/23 10:27:03;;;;;;;0.10;0.10;;;;;;;34.28;96.35;102291.31;10351468;28;20084;-79
2023/06/23 10:32:08;;;;;;;0.20;0.20;;;;;;;34.46;100.00;102279.66;10367239;28;20097;-80
2023/06/23 10:37:14;;;;;;;0.28;0.15;;;;;;;34.62;100.00;102284.16;10364699;28;20129;-80
2023/06/23 10:42:16;;;;;;;0.00;0.00;;;;;;;34.15;96.13;102286.59;10369054;28;20901;-79
2023/06/23 10:47:18;;;;;;;0.05;0.05;;;;;;;32.98;100.00;102293.25;10376708;28;20050;-79
2023/06/23 10:52:21;;;;;;;0.13;0.13;;;;;;;34.88;100.00;102290.78;10369579;28;20045;-79
2023/06/23 10:57:23;;;;;;;0.55;0.30;;;;;;;34.79;100.00;102286.78;10373438;28;20498;-79
2023/06/23 11:02:25;;;;;;;0.80;0.73;;;;;;;34.29;93.37;102290.38;10372535;28;20042;-82
2023/06/23 11:07:27;;;;;;;0.13;0.13;;;;;;;34.99;99.64;102292.84;10378070;28;20501;-79
2023/06/23 11:12:38;;;;;;;0.20;0.20;;;;;;;33.54;100.00;102301.28;10371108;28;20050;-79
2023/06/23 11:18:00;;;;;;;0.43;0.20;;;;;;;33.96;100.00;102285.84;10373467;28;20053;-78
2023/06/23 11:23:07;;;;;;;0.95;0.30;;;;;;;34.42;92.61;102293.28;10367164;28;20041;-80
2023/06/23 11:28:34;;;;;;;0.20;0.20;;;;;;;33.86;100.00;102301.50;10365385;28;20058;-80
2023/06/23 11:33:37;;;;;;;0.32;0.15;;;;;;;35.05;95.46;102292.50;10350149;28;20049;-78
2023/06/23 11:38:40;;;;;;;0.40;0.32;;;;;;;33.14;100.00;102296.06;10371403;28;20072;-79
2023/06/23 11:43:42;;;;;;;0.57;0.22;;;;;;;33.25;99.17;102308.03;10371375;28;20052;-78
2023/06/23 11:48:45;;;;;;;0.10;0.00;;;;;;;33.30;96.09;102308.66;10371022;28;20045;-81
2023/06/23 11:53:50;;;;;;;0.40;0.20;;;;;;;33.75;97.72;102304.69;10363907;28;20091;-78
2023/06/23 11:58:55;;;;;;;0.10;0.10;;;;;;;34.47;92.33;102308.13;10366689;28;20041;-79
2023/06/23 12:03:57;;;;;;;0.55;0.35;;;;;;;34.81;96.00;102304.56;10370858;28;20053;-80
2023/06/23 12:08:59;;;;;;;0.05;0.05;;;;;;;33.48;94.05;102322.97;10363064;28;20084;-78
2023/06/23 12:14:02;;;;;;;0.17;0.08;;;;;;;33.21;98.03;102316.19;10368972;28;20049;-78
2023/06/23 12:19:04;;;;;;;0.10;0.10;;;;;;;32.62;100.00;102318.00;10374765;28;20042;-79
2023/06/23 12:24:13;;;;;;;0.20;0.03;;;;;;;32.12;92.49;102325.50;10374968;28;20049;-78
2023/06/23 12:29:16;;;;;;;;;;;;;;;34.41;92.83;102313.81;10363908;28;20412;-80
2023/06/23 12:34:17;;;;;;;0.65;0.52;;;;;;;32.85;90.87;102317.00;10366861;28;19983;-80
2023/06/23 12:39:21;;;;;;;0.35;0.35;;;;;;;32.78;88.45;102318.22;10361725;28;20054;-79
2023/06/23 12:44:26;;;;;;;0.20;0.00;;;;;;;33.08;90.35;102309.72;10356781;28;20124;-78
2023/06/23 12:49:32;;;;;;;2.92;0.85;;;;;;;33.75;89.31;102298.47;10375562;28;20049;-78
2023/06/23 12:54:33;;;;;;;0.10;0.10;;;;;;;32.92;95.24;102314.88;10358679;28;20432;-80
2023/06/23 12:59:35;;;;;;;0.20;0.20;;;;;;;33.39;88.10;102305.59;10359539;28;20108;-80
2023/06/23 13:04:36;;;;;;;0.10;0.10;;;;;;;32.48;95.35;102315.97;10367925;28;20035;-81
2023/06/23 13:09:38;;;;;;;0.05;0.05;;;;;;;32.26;96.38;102310.72;10373196;28;20046;-79
2023/06/23 13:14:40;;;;;;;0.00;0.00;;;;;;;33.57;92.42;102308.28;10380662;28;20531;-78
2023/06/23 13:19:41;;;;;;;0.50;0.40;;;;;;;33.72;92.29;102310.19;10366703;28;20041;-79
2023/06/23 13:24:43;;;;;;;0.00;0.00;;;;;;;32.81;89.82;102299.38;10375643;28;20041;-79
2023/06/23 13:29:44;;;;;;;0.30;0.25;;;;;;;32.92;83.98;102311.38;10372933;28;20052;-79
2023/06/23 13:34:47;;;;;;;0.20;0.20;;;;;;;32.50;97.25;102319.44;10369207;28;20468;-79
2023/06/23 13:39:48;;;;;;;0.00;0.00;;;;;;;32.19;91.46;102320.75;10370376;28;20510;-79
2023/06/23 13:44:50;;;;;;;0.35;0.20;;;;;;;32.83;97.78;102320.69;10366521;28;20042;-79
2023/06/23 13:49:52;;;;;;;0.32;0.20;;;;;;;32.81;97.93;102318.06;10380109;28;20054;-81
2023/06/23 13:54:53;;;;;;;0.10;0.10;;;;;;;32.21;97.47;102324.25;10371336;28;20619;-80
2023/06/23 13:59:56;;;;;;;0.22;0.22;;;;;;;33.03;95.88;102301.03;10354022;28;20039;-82
2023/06/23 14:04:58;;;;;;;0.40;0.20;;;;;;;32.87;100.00;102309.78;10351144;28;20042;-79
2023/06/23 14:10:02;;;;;;;0.22;0.22;;;;;;;32.64;100.00;102315.28;10356503;28;20509;-80
2023/06/23 14:15:07;;;;;;;0.10;0.10;;;;;;;32.46;100.00;102319.66;10368053;28;20041;-78
2023/06/23 14:20:09;;;;;;;0.63;0.35;;;;;;;33.43;99.16;102298.28;10355550;28;20057;-79
2023/06/23 14:25:11;;;;;;;0.10;0.10;;;;;;;32.83;98.21;102310.84;10355307;28;20408;-79
2023/06/23 14:30:13;;;;;;;0.32;0.00;;;;;;;32.20;95.40;102311.84;10367414;28;20140;-82
2023/06/23 14:35:16;;;;;;;0.63;0.20;;;;;;;32.58;99.48;102306.59;10369013;28;20412;-80
2023/06/23 14:40:18;;;;;;;0.25;0.25;;;;;;;32.26;96.03;102311.59;10364984;28;20054;-79
2023/06/23 14:45:19;;;;;;;0.25;0.25;;;;;;;33.57;100.00;102303.81;10367383;28;20513;-82
2023/06/23 14:50:21;;;;;;;0.20;0.10;;;;;;;33.24;97.70;102314.31;10371200;28;20046;-81
2023/06/23 14:55:24;;;;;;;0.20;0.10;;;;;;;33.98;95.24;102321.41;10361035;28;20116;-80
2023/06/23 15:00:25;;;;;;;0.05;0.05;;;;;;;33.37;95.53;102321.66;10371544;28;20050;-79
2023/06/23 15:05:28;;;;;;;0.17;0.08;;;;;;;33.32;93.97;102322.84;10366293;28;20034;-79
2023/06/23 15:10:30;;;;;;;0.30;0.30;;;;;;;34.48;96.60;102320.56;10375145;28;20579;-78
2023/06/23 15:15:32;;;;;;;0.10;0.10;;;;;;;32.98;89.10;102319.06;10381386;28;20045;-78
2023/06/23 15:20:34;;;;;;;0.13;0.13;;;;;;;33.12;92.31;102332.63;10364709;28;20045;-78
2023/06/23 15:25:35;;;;;;;0.30;0.20;;;;;;;33.91;92.15;102330.69;10372541;28;20187;-78
2023/06/23 15:30:37;;;;;;;0.28;0.10;;;;;;;33.18;91.82;102332.34;10381197;28;20120;-79
2023/06/23 15:35:38;;;;;;;0.20;0.20;;;;;;;33.45;86.73;102332.00;10384198;28;20072;-78
2023/06/23 15:40:40;;;;;;;0.13;0.13;;;;;;;33.15;95.75;102337.84;10374596;28;20068;-77
2023/06/23 15:45:42;;;;;;;0.05;0.05;;;;;;;33.77;95.33;102339.34;10370164;28;20096;-80
2023/06/23 15:50:44;;;;;;;0.10;0.10;;;;;;;33.73;96.30;102335.13;10371044;28;20050;-80
2023/06/23 15:55:46;;;;;;;1.10;0.65;;;;;;;33.47;88.12;102342.59;10372750;28;20108;-81
2023/06/23 16:00:48;;;;;;;0.28;0.10;;;;;;;32.94;91.42;102347.72;10371216;28;20463;-80
2023/06/23 16:05:49;;;;;;;0.20;0.10;;;;;;;32.65;95.59;102349.88;10372111;28;20119;-79
2023/06/23 16:10:51;;;;;;;0.30;0.30;;;;;;;33.36;94.61;102340.44;10371897;28;20045;-76
2023/06/23 16:15:52;;;;;;;1.02;0.80;;;;;;;32.82;98.56;102349.16;10370255;28;20049;-78
2023/06/23 16:20:54;;;;;;;0.45;0.30;;;;;;;33.16;93.26;102334.25;10364384;28;20050;-78
2023/06/23 16:25:55;;;;;;;0.60;0.22;;;;;;;32.80;96.84;102345.69;10358822;28;20038;-77
2023/06/23 16:30:57;;;;;;;0.10;0.10;;;;;;;32.78;92.54;102342.22;10364734;28;20042;-77
2023/06/23 16:36:01;;;;;;;0.30;0.15;;;;;;;32.97;96.78;102350.25;10367581;28;20077;-78
2023/06/23 16:41:02;;;;;;;0.28;0.10;;;;;;;33.43;98.32;102344.56;10357108;28;20099;-79
2023/06/23 16:46:04;;;;;;;0.10;0.10;;;;;;;32.00;100.00;102354.47;10365227;28;20046;-78
2023/06/23 16:51:05;;;;;;;0.00;0.00;;;;;;;31.96;96.52;102356.38;10376392;28;20523;-80
2023/06/23 16:56:09;;;;;;;0.38;0.20;;;;;;;32.84;100.00;102360.63;10364396;28;20037;-76
2023/06/23 17:01:11;;;;;;;0.47;0.30;;;;;;;32.59;100.00;102366.19;10362566;28;20402;-79
2023/06/23 17:06:13;;;;;;;0.10;0.10;;;;;;;32.94;93.64;102365.53;10363235;28;20046;-79
2023/06/23 17:11:15;;;;;;;0.00;0.00;;;;;;;32.08;98.89;102369.22;10365029;28;20119;-80
2023/06/23 17:16:17;;;;;;;0.20;0.15;;;;;;;31.96;98.99;102362.59;10362647;28;20096;-78
2023/06/23 17:21:19;;;;;;;0.40;0.10;;;;;;;32.45;98.96;102373.94;10357621;28;20054;-79
2023/06/23 17:26:21;;;;;;;0.57;0.15;;;;;;;31.85;98.78;102370.16;10365133;28;20046;-78
2023/06/23 17:31:22;;;;;;;0.25;0.25;;;;;;;32.19;96.45;102368.75;10365145;28;20588;-78
2023/06/23 17:36:24;;;;;;;0.20;0.20;;;;;;;32.40;96.18;102360.78;10366089;28;20411;-80
2023/06/23 17:41:27;;;;;;;0.10;0.10;;;;;;;33.11;100.00;102357.59;10364971;28;20464;-80
2023/06/23 17:46:28;;;;;;;0.10;0.10;;;;;;;32.01;96.38;102362.41;10359400;28;20046;-80
2023/06/23 17:51:30;;;;;;;0.00;0.00;;;;;;;32.36;100.00;102365.38;10357043;28;20056;-80
2023/06/23 17:56:32;;;;;;;0.20;0.15;;;;;;;31.59;99.07;102369.41;10349540;28;20034;-77
2023/06/23 18:01:33;;;;;;;0.00;0.00;;;;;;;31.86;98.35;102379.03;10357226;28;20042;-77
2023/06/23 18:06:36;;;;;;;0.10;0.10;;;;;;;31.14;99.19;102383.59;10356320;28;20046;-78
2023/06/23 18:11:38;;;;;;;0.25;0.25;;;;;;;31.81;100.00;102381.88;10356276;28;20042;-79
2023/06/23 18:16:40;;;;;;;0.43;0.43;;;;;;;31.15;98.12;102382.66;10360424;28;20107;-80
2023/06/23 18:21:41;;;;;;;1.08;0.65;;;;;;;30.89;100.00;102384.47;10356505;28;20046;-77
2023/06/23 18:26:45;;;;;;;0.10;0.10;;;;;;;31.09;100.00;102389.06;10368416;28;20490;-80
2023/06/23 18:31:53;;;;;;;0.10;0.10;;;;;;;31.06;100.00;102396.28;10363818;28;20046;-80
2023/06/23 18:36:55;;;;;;;0.20;0.20;;;;;;;31.41;100.00;102397.63;10368214;28;20042;-79
2023/06/23 18:41:57;;;;;;;0.20;0.20;;;;;;;30.96;99.42;102393.09;10360457;28;20054;-82
2023/06/23 18:46:59;;;;;;;0.00;0.00;;;;;;;31.27;100.00;102389.31;10363929;28;20041;-79
2023/06/23 18:52:00;;;;;;;0.00;0.00;;;;;;;31.16;100.00;102381.75;10358877;28;20050;-80
2023/06/23 18:57:02;;;;;;;0.05;0.05;;;;;;;31.39;100.00;102378.19;10358291;28;20038;-78
2023/06/23 19:02:04;;;;;;;0.00;0.00;;;;;;;31.39;100.00;102394.16;10365162;28;20500;-79
2023/06/23 19:07:05;;;;;;;0.25;0.00;;;;;;;30.68;100.00;102397.63;10369893;28;20037;-77
2023/06/23 19:12:08;;;;;;;0.00;0.00;;;;;;;31.63;100.00;102391.47;10358784;28;20084;-78
2023/06/23 19:17:12;;;;;;;0.00;0.00;;;;;;;31.04;100.00;102403.44;10368016;28;20046;-79
2023/06/23 19:22:13;;;;;;;0.70;0.38;;;;;;;31.15;100.00;102401.28;10373369;28;20050;-78
2023/06/23 19:27:15;;;;;;;0.17;0.10;;;;;;;31.03;100.00;102402.59;10382599;28;20050;-79
2023/06/23 19:32:16;;;;;;;0.00;0.00;;;;;;;31.54;100.00;102403.31;10368579;28;20042;-79
2023/06/23 19:37:18;;;;;;;0.03;0.03;;;;;;;31.28;100.00;102412.31;10374793;28;20088;-80
2023/06/23 19:42:20;;;;;;;0.00;0.00;;;;;;;31.19;100.00;102423.34;10354886;28;20104;-81
2023/06/23 19:47:22;;;;;;;0.00;0.00;;;;;;;31.24;100.00;102429.34;10357899;28;20042;-81
2023/06/23 19:52:25;;;;;;;0.10;0.10;;;;;;;30.54;100.00;102431.81;10372237;28;20042;-78
2023/06/23 19:57:27;;;;;;;0.10;0.10;;;;;;;30.14;100.00;102441.09;10359358;28;20129;-79
2023/06/23 20:02:28;;;;;;;0.03;0.03;;;;;;;29.93;100.00;102434.69;10361167;28;20046;-79
2023/06/23 20:07:31;;;;;;;0.00;0.00;;;;;;;30.04;100.00;102438.75;10368337;28;20038;-78
2023/06/23 20:12:33;;;;;;;0.08;0.08;;;;;;;30.22;100.00;102436.38;10376060;28;20049;-78
2023/06/23 20:17:35;;;;;;;0.20;0.13;;;;;;;29.91;100.00;102440.03;10370327;28;20116;-78
2023/06/23 20:22:37;;;;;;;0.45;0.45;;;;;;;29.99;100.00;102443.31;10373069;28;20073;-79
2023/06/23 20:27:39;;;;;;;0.00;0.00;;;;;;;30.29;100.00;102448.56;10370794;28;20038;-79
2023/06/23 20:32:40;;;;;;;0.03;0.03;;;;;;;30.49;100.00;102452.34;10369767;28;20057;-79
2023/06/23 20:37:42;;;;;;;0.10;0.10;;;;;;;30.07;100.00;102446.59;10371672;28;20060;-81
2023/06/23 20:42:43;;;;;;;0.10;0.10;;;;;;;29.42;100.00;102445.91;10369030;28;20053;-80
2023/06/23 20:47:45;;;;;;;2.05;0.20;;;;;;;29.81;100.00;102446.53;10359562;28;20463;-78
2023/06/23 20:52:47;;;;;;;0.20;0.20;;;;;;;29.83;100.00;102439.38;10361769;28;20068;-80
2023/06/23 20:57:48;;;;;;;0.10;0.10;;;;;;;29.67;100.00;102439.88;10361868;28;20038;-78
2023/06/23 21:02:50;;;;;;;0.00;0.00;;;;;;;29.22;100.00;102442.94;10366666;28;20505;-81
2023/06/23 21:07:51;;;;;;;0.00;0.00;;;;;;;29.16;100.00;102451.03;10358743;28;20424;-79
2023/06/23 21:12:53;;;;;;;0.45;0.10;;;;;;;28.44;100.00;102444.09;10377501;28;20037;-80
2023/06/23 21:17:55;;;;;;;1.25;0.38;;;;;;;28.74;100.00;102442.44;10366219;28;20041;-81
2023/06/23 21:22:56;;;;;;;0.28;0.28;;;;;;;27.93;100.00;102447.91;10361884;28;20053;-82
2023/06/23 21:27:58;;;;;;;0.10;0.10;;;;;;;28.16;100.00;102440.34;10372633;28;20046;-81
2023/06/23 21:33:00;;;;;;;0.10;0.10;;;;;;;28.26;100.00;102440.97;10367729;28;20050;-83
2023/06/23 21:38:02;;;;;;;0.10;0.10;;;;;;;28.80;100.00;102430.81;10363570;28;20515;-84
2023/06/23 21:43:03;;;;;;;0.00;0.00;;;;;;;28.66;100.00;102439.09;10363014;28;20414;-81
2023/06/23 21:48:05;;;;;;;0.45;0.10;;;;;;;28.74;100.00;102437.16;10365984;28;20038;-78
2023/06/23 21:53:07;;;;;;;0.00;0.00;;;;;;;27.92;100.00;102459.41;10375100;28;20547;-79
2023/06/23 21:58:08;;;;;;;0.08;0.08;;;;;;;27.26;100.00;102451.94;10367387;28;20052;-80
2023/06/23 22:03:10;;;;;;;0.15;0.10;;;;;;;28.53;100.00;102448.28;10352075;28;20054;-81
2023/06/23 22:08:12;;;;;;;0.10;0.10;;;;;;;28.91;100.00;102443.78;10366197;28;20045;-80
2023/06/23 22:13:13;;;;;;;0.22;0.20;;;;;;;28.62;100.00;102446.25;10371886;28;20042;-81
2023/06/23 22:18:15;;;;;;;0.10;0.10;;;;;;;28.70;100.00;102435.50;10369942;28;20050;-79
2023/06/23 22:23:37;;;;;;;0.52;0.28;;;;;;;27.27;100.00;102434.28;10370367;28;20133;-81
2023/06/23 22:28:38;;;;;;;0.77;0.50;;;;;;;27.50;100.00;102434.72;10371172;28;20039;-80
2023/06/23 22:33:40;;;;;;;0.20;0.10;;;;;;;28.34;100.00;102432.81;10374820;28;20107;-82
2023/06/23 22:38:42;;;;;;;0.20;0.10;;;;;;;28.21;100.00;102431.41;10372608;28;20096;-82
2023/06/23 22:43:43;;;;;;;0.20;0.10;;;;;;;27.99;100.00;102432.78;10372462;28;20771;-81
2023/06/23 22:48:45;;;;;;;0.10;0.10;;;;;;;27.62;100.00;102436.25;10380048;28;20092;-83
2023/06/23 22:53:46;;;;;;;0.63;0.28;;;;;;;26.40;100.00;102446.38;10376335;28;20045;-79
2023/06/23 22:58:48;;;;;;;0.00;0.00;;;;;;;26.64;100.00;102445.13;10374385;28;20029;-80
2023/06/23 23:03:50;;;;;;;0.50;0.38;;;;;;;27.31;100.00;102438.59;10372532;28;20448;-79